sensor_id;sensor_type;location;lat;lon;timestamp;P1;P2;P0
77320;PMS7003;66382;52.252;8.780;2024-03-07T00:00:04;39.25;36.50;25.25
77320;PMS7003;66382;52.252;8.780;2024-03-07T00:02:31;39.25;36.75;25.00
77320;PMS7003;66382;52.252;8.780;2024-03-07T00:04:56;38.25;35.75;22.50
77320;PMS7003;66382;52.252;8.780;2024-03-07T00:07:22;33.25;33.25;22.00
77320;PMS7003;66382;52.252;8.780;2024-03-07T00:09:47;38.00;36.25;23.25
77320;PMS7003;66382;52.252;8.780;2024-03-07T00:12:14;38.00;36.25;23.75
77320;PMS7003;66382;52.252;8.780;2024-03-07T00:14:39;41.75;38.50;25.75
77320;PMS7003;66382;52.252;8.780;2024-03-07T00:17:05;43.50;39.00;25.75
77320;PMS7003;66382;52.252;8.780;2024-03-07T00:19:30;41.50;37.75;24.75
77320;PMS7003;66382;52.252;8.780;2024-03-07T00:21:56;44.50;38.75;22.75
77320;PMS7003;66382;52.252;8.780;2024-03-07T00:24:22;33.75;33.50;22.50
77320;PMS7003;66382;52.252;8.780;2024-03-07T00:26:48;37.75;35.75;26.00
77320;PMS7003;66382;52.252;8.780;2024-03-07T00:29:14;38.75;36.75;26.50
77320;PMS7003;66382;52.252;8.780;2024-03-07T00:31:40;34.75;34.00;23.50
77320;PMS7003;66382;52.252;8.780;2024-03-07T00:34:05;41.25;38.00;24.50
77320;PMS7003;66382;52.252;8.780;2024-03-07T00:36:31;40.25;37.25;23.25
77320;PMS7003;66382;52.252;8.780;2024-03-07T00:38:56;49.25;43.00;26.00
77320;PMS7003;66382;52.252;8.780;2024-03-07T00:41:21;46.75;41.00;27.00
77320;PMS7003;66382;52.252;8.780;2024-03-07T00:43:47;52.25;43.50;27.00
77320;PMS7003;66382;52.252;8.780;2024-03-07T00:46:14;48.50;42.50;26.75
77320;PMS7003;66382;52.252;8.780;2024-03-07T00:48:39;45.00;40.75;27.00
77320;PMS7003;66382;52.252;8.780;2024-03-07T00:51:05;47.50;40.75;27.00
77320;PMS7003;66382;52.252;8.780;2024-03-07T00:53:30;46.75;41.50;27.00
77320;PMS7003;66382;52.252;8.780;2024-03-07T00:55:56;51.25;44.50;28.00
77320;PMS7003;66382;52.252;8.780;2024-03-07T00:58:21;51.50;43.75;27.25
77320;PMS7003;66382;52.252;8.780;2024-03-07T01:00:47;52.50;45.25;30.50
77320;PMS7003;66382;52.252;8.780;2024-03-07T01:03:13;51.50;44.75;27.00
77320;PMS7003;66382;52.252;8.780;2024-03-07T01:05:39;52.00;44.00;26.25
77320;PMS7003;66382;52.252;8.780;2024-03-07T01:08:05;40.25;38.00;29.00
77320;PMS7003;66382;52.252;8.780;2024-03-07T01:10:31;56.50;47.00;30.00
77320;PMS7003;66382;52.252;8.780;2024-03-07T01:12:57;42.75;38.25;27.75
77320;PMS7003;66382;52.252;8.780;2024-03-07T01:15:22;46.75;42.00;26.75
77320;PMS7003;66382;52.252;8.780;2024-03-07T01:17:48;46.50;42.00;28.00
77320;PMS7003;66382;52.252;8.780;2024-03-07T01:20:15;44.00;39.75;28.00
77320;PMS7003;66382;52.252;8.780;2024-03-07T01:22:40;48.50;40.00;26.25
77320;PMS7003;66382;52.252;8.780;2024-03-07T01:25:06;46.50;41.00;26.00
77320;PMS7003;66382;52.252;8.780;2024-03-07T01:27:31;54.50;45.00;29.25
77320;PMS7003;66382;52.252;8.780;2024-03-07T01:29:57;49.25;43.25;27.25
77320;PMS7003;66382;52.252;8.780;2024-03-07T01:32:22;42.00;38.00;25.00
77320;PMS7003;66382;52.252;8.780;2024-03-07T01:34:48;44.50;40.75;25.50
77320;PMS7003;66382;52.252;8.780;2024-03-07T01:37:14;46.50;41.75;25.75
77320;PMS7003;66382;52.252;8.780;2024-03-07T01:39:40;45.75;39.25;25.25
77320;PMS7003;66382;52.252;8.780;2024-03-07T01:42:05;44.00;40.00;23.00
77320;PMS7003;66382;52.252;8.780;2024-03-07T01:44:31;52.25;44.25;27.75
77320;PMS7003;66382;52.252;8.780;2024-03-07T01:46:57;48.00;42.75;28.00
77320;PMS7003;66382;52.252;8.780;2024-03-07T01:49:23;44.00;40.50;27.75
77320;PMS7003;66382;52.252;8.780;2024-03-07T01:51:48;51.00;42.50;27.00
77320;PMS7003;66382;52.252;8.780;2024-03-07T01:54:15;48.00;42.00;27.00
77320;PMS7003;66382;52.252;8.780;2024-03-07T01:56:41;46.00;41.25;26.75
77320;PMS7003;66382;52.252;8.780;2024-03-07T01:59:06;49.00;42.75;27.00
77320;PMS7003;66382;52.252;8.780;2024-03-07T02:01:32;40.75;38.50;23.25
77320;PMS7003;66382;52.252;8.780;2024-03-07T02:03:58;45.25;40.75;27.25
77320;PMS7003;66382;52.252;8.780;2024-03-07T02:06:24;49.75;42.50;27.50
77320;PMS7003;66382;52.252;8.780;2024-03-07T02:08:51;44.75;40.00;26.25
77320;PMS7003;66382;52.252;8.780;2024-03-07T02:11:18;42.50;39.00;27.00
77320;PMS7003;66382;52.252;8.780;2024-03-07T02:13:43;48.75;42.50;26.50
77320;PMS7003;66382;52.252;8.780;2024-03-07T02:16:09;46.00;41.75;28.00
77320;PMS7003;66382;52.252;8.780;2024-03-07T02:18:35;43.25;40.00;27.00
77320;PMS7003;66382;52.252;8.780;2024-03-07T02:21:06;53.50;45.50;28.75
77320;PMS7003;66382;52.252;8.780;2024-03-07T02:23:32;48.75;41.50;27.25
77320;PMS7003;66382;52.252;8.780;2024-03-07T02:25:57;51.00;42.75;27.25
77320;PMS7003;66382;52.252;8.780;2024-03-07T02:28:23;48.00;41.50;27.00
77320;PMS7003;66382;52.252;8.780;2024-03-07T02:30:48;47.50;41.50;28.00
77320;PMS7003;66382;52.252;8.780;2024-03-07T02:33:14;48.00;42.50;28.00
77320;PMS7003;66382;52.252;8.780;2024-03-07T02:35:39;49.00;42.00;27.25
77320;PMS7003;66382;52.252;8.780;2024-03-07T02:38:06;50.75;44.25;27.50
77320;PMS7003;66382;52.252;8.780;2024-03-07T02:40:31;51.00;44.75;28.25
77320;PMS7003;66382;52.252;8.780;2024-03-07T02:42:57;44.50;40.75;28.00
77320;PMS7003;66382;52.252;8.780;2024-03-07T02:45:23;41.50;38.75;27.50
77320;PMS7003;66382;52.252;8.780;2024-03-07T02:47:48;50.00;42.75;26.00
77320;PMS7003;66382;52.252;8.780;2024-03-07T02:50:14;42.50;38.75;22.00
77320;PMS7003;66382;52.252;8.780;2024-03-07T02:52:39;48.75;43.00;27.00
77320;PMS7003;66382;52.252;8.780;2024-03-07T02:55:06;50.00;42.50;27.50
77320;PMS7003;66382;52.252;8.780;2024-03-07T02:57:32;51.75;44.00;26.50
77320;PMS7003;66382;52.252;8.780;2024-03-07T02:59:58;45.75;41.25;26.25
77320;PMS7003;66382;52.252;8.780;2024-03-07T03:02:23;46.75;42.00;26.50
77320;PMS7003;66382;52.252;8.780;2024-03-07T03:04:48;40.00;37.50;26.00
77320;PMS7003;66382;52.252;8.780;2024-03-07T03:07:14;41.25;38.75;25.25
77320;PMS7003;66382;52.252;8.780;2024-03-07T03:09:39;45.75;41.25;27.75
77320;PMS7003;66382;52.252;8.780;2024-03-07T03:12:06;50.25;44.25;27.50
77320;PMS7003;66382;52.252;8.780;2024-03-07T03:14:32;48.25;43.00;26.00
77320;PMS7003;66382;52.252;8.780;2024-03-07T03:16:57;53.00;45.75;29.25
77320;PMS7003;66382;52.252;8.780;2024-03-07T03:19:23;41.75;39.00;25.75
77320;PMS7003;66382;52.252;8.780;2024-03-07T03:21:48;52.25;44.75;27.00
77320;PMS7003;66382;52.252;8.780;2024-03-07T03:24:13;49.50;43.50;27.00
77320;PMS7003;66382;52.252;8.780;2024-03-07T03:26:39;50.75;43.00;27.00
77320;PMS7003;66382;52.252;8.780;2024-03-07T03:29:06;48.00;42.75;28.00
77320;PMS7003;66382;52.252;8.780;2024-03-07T03:31:31;48.25;42.75;26.00
77320;PMS7003;66382;52.252;8.780;2024-03-07T03:33:57;53.75;44.50;26.75
77320;PMS7003;66382;52.252;8.780;2024-03-07T03:36:22;40.25;38.00;26.00
77320;PMS7003;66382;52.252;8.780;2024-03-07T03:38:47;44.75;41.00;26.00
77320;PMS7003;66382;52.252;8.780;2024-03-07T03:41:14;43.75;39.75;26.25
77320;PMS7003;66382;52.252;8.780;2024-03-07T03:43:40;46.00;40.50;26.00
77320;PMS7003;66382;52.252;8.780;2024-03-07T03:46:10;45.75;41.00;26.25
77320;PMS7003;66382;52.252;8.780;2024-03-07T03:48:35;46.75;39.00;26.00
77320;PMS7003;66382;52.252;8.780;2024-03-07T03:51:01;43.50;40.00;27.00
77320;PMS7003;66382;52.252;8.780;2024-03-07T03:53:26;41.75;37.50;24.00
77320;PMS7003;66382;52.252;8.780;2024-03-07T03:55:52;39.75;38.00;25.00
77320;PMS7003;66382;52.252;8.780;2024-03-07T03:58:17;37.25;36.00;23.75
77320;PMS7003;66382;52.252;8.780;2024-03-07T04:00:43;42.50;40.00;26.50
77320;PMS7003;66382;52.252;8.780;2024-03-07T04:03:09;39.50;37.00;25.25
77320;PMS7003;66382;52.252;8.780;2024-03-07T04:05:35;37.50;36.50;23.00
77320;PMS7003;66382;52.252;8.780;2024-03-07T04:08:00;43.25;39.25;25.00
77320;PMS7003;66382;52.252;8.780;2024-03-07T04:10:26;43.50;39.75;24.75
77320;PMS7003;66382;52.252;8.780;2024-03-07T04:12:51;43.00;37.25;26.25
77320;PMS7003;66382;52.252;8.780;2024-03-07T04:15:17;48.75;42.00;25.50
77320;PMS7003;66382;52.252;8.780;2024-03-07T04:17:42;40.25;38.50;25.25
77320;PMS7003;66382;52.252;8.780;2024-03-07T04:20:10;36.25;35.25;24.25
77320;PMS7003;66382;52.252;8.780;2024-03-07T04:22:36;42.75;39.25;26.25
77320;PMS7003;66382;52.252;8.780;2024-03-07T04:25:02;40.50;36.25;24.00
77320;PMS7003;66382;52.252;8.780;2024-03-07T04:27:28;38.75;37.00;24.25
77320;PMS7003;66382;52.252;8.780;2024-03-07T04:29:54;35.75;34.75;24.00
77320;PMS7003;66382;52.252;8.780;2024-03-07T04:32:19;29.50;29.50;24.50
77320;PMS7003;66382;52.252;8.780;2024-03-07T04:34:46;40.50;39.00;26.25
77320;PMS7003;66382;52.252;8.780;2024-03-07T04:37:13;44.50;39.25;26.25
77320;PMS7003;66382;52.252;8.780;2024-03-07T04:39:39;46.50;41.25;25.00
77320;PMS7003;66382;52.252;8.780;2024-03-07T04:42:05;39.25;37.25;25.00
77320;PMS7003;66382;52.252;8.780;2024-03-07T04:44:31;36.50;35.75;23.75
77320;PMS7003;66382;52.252;8.780;2024-03-07T04:46:58;42.75;39.50;26.25
77320;PMS7003;66382;52.252;8.780;2024-03-07T04:49:24;42.25;38.25;25.50
77320;PMS7003;66382;52.252;8.780;2024-03-07T04:51:51;43.00;40.00;25.25
77320;PMS7003;66382;52.252;8.780;2024-03-07T04:54:17;46.00;41.25;27.00
77320;PMS7003;66382;52.252;8.780;2024-03-07T04:56:43;38.25;37.25;25.75
77320;PMS7003;66382;52.252;8.780;2024-03-07T04:59:09;41.00;38.50;25.75
77320;PMS7003;66382;52.252;8.780;2024-03-07T05:01:34;37.00;35.00;24.00
77320;PMS7003;66382;52.252;8.780;2024-03-07T05:03:59;41.00;37.75;24.00
77320;PMS7003;66382;52.252;8.780;2024-03-07T05:06:25;39.50;38.00;26.00
77320;PMS7003;66382;52.252;8.780;2024-03-07T05:08:50;42.25;39.75;26.00
77320;PMS7003;66382;52.252;8.780;2024-03-07T05:11:17;44.00;40.50;25.25
77320;PMS7003;66382;52.252;8.780;2024-03-07T05:13:42;43.75;39.25;24.75
77320;PMS7003;66382;52.252;8.780;2024-03-07T05:16:08;41.00;39.00;24.25
77320;PMS7003;66382;52.252;8.780;2024-03-07T05:18:33;42.75;38.75;25.75
77320;PMS7003;66382;52.252;8.780;2024-03-07T05:20:59;36.00;35.75;24.00
77320;PMS7003;66382;52.252;8.780;2024-03-07T05:23:24;37.00;36.25;24.50
77320;PMS7003;66382;52.252;8.780;2024-03-07T05:25:50;37.50;36.25;24.00
77320;PMS7003;66382;52.252;8.780;2024-03-07T05:28:16;38.25;37.00;25.00
77320;PMS7003;66382;52.252;8.780;2024-03-07T05:30:42;36.50;36.00;25.00
77320;PMS7003;66382;52.252;8.780;2024-03-07T05:33:07;36.50;35.75;23.50
77320;PMS7003;66382;52.252;8.780;2024-03-07T05:35:33;37.75;35.75;24.00
77320;PMS7003;66382;52.252;8.780;2024-03-07T05:37:58;40.00;37.75;23.75
77320;PMS7003;66382;52.252;8.780;2024-03-07T05:40:23;36.25;34.75;22.50
77320;PMS7003;66382;52.252;8.780;2024-03-07T05:42:49;38.00;37.00;23.25
77320;PMS7003;66382;52.252;8.780;2024-03-07T05:45:16;36.25;35.25;23.25
77320;PMS7003;66382;52.252;8.780;2024-03-07T05:47:41;39.00;37.50;24.00
77320;PMS7003;66382;52.252;8.780;2024-03-07T05:50:07;30.25;30.25;24.00
77320;PMS7003;66382;52.252;8.780;2024-03-07T05:52:33;36.50;34.25;22.75
77320;PMS7003;66382;52.252;8.780;2024-03-07T05:54:58;38.25;36.75;24.00
77320;PMS7003;66382;52.252;8.780;2024-03-07T05:57:23;45.75;40.00;26.00
77320;PMS7003;66382;52.252;8.780;2024-03-07T05:59:49;38.50;37.25;24.50
77320;PMS7003;66382;52.252;8.780;2024-03-07T06:02:16;41.75;38.75;26.00
77320;PMS7003;66382;52.252;8.780;2024-03-07T06:04:41;38.00;37.00;25.00
77320;PMS7003;66382;52.252;8.780;2024-03-07T06:07:07;36.75;36.00;24.50
77320;PMS7003;66382;52.252;8.780;2024-03-07T06:09:32;36.75;35.50;23.75
77320;PMS7003;66382;52.252;8.780;2024-03-07T06:11:57;33.75;33.50;25.25
77320;PMS7003;66382;52.252;8.780;2024-03-07T06:14:23;41.50;39.00;25.25
77320;PMS7003;66382;52.252;8.780;2024-03-07T06:16:48;40.00;38.25;25.50
77320;PMS7003;66382;52.252;8.780;2024-03-07T06:19:15;31.75;31.75;22.25
77320;PMS7003;66382;52.252;8.780;2024-03-07T06:21:40;39.25;38.00;23.00
77320;PMS7003;66382;52.252;8.780;2024-03-07T06:24:07;43.25;39.75;26.00
77320;PMS7003;66382;52.252;8.780;2024-03-07T06:26:33;36.50;35.50;24.00
77320;PMS7003;66382;52.252;8.780;2024-03-07T06:28:59;42.75;39.00;26.75
77320;PMS7003;66382;52.252;8.780;2024-03-07T06:31:25;47.50;40.50;27.25
77320;PMS7003;66382;52.252;8.780;2024-03-07T06:33:50;45.25;40.75;26.25
77320;PMS7003;66382;52.252;8.780;2024-03-07T06:36:17;44.75;39.25;25.50
77320;PMS7003;66382;52.252;8.780;2024-03-07T06:38:42;37.25;36.25;23.50
77320;PMS7003;66382;52.252;8.780;2024-03-07T06:41:08;42.00;39.00;26.00
77320;PMS7003;66382;52.252;8.780;2024-03-07T06:43:33;48.50;42.75;27.50
77320;PMS7003;66382;52.252;8.780;2024-03-07T06:45:58;49.25;43.25;27.25
77320;PMS7003;66382;52.252;8.780;2024-03-07T06:48:24;48.75;43.00;26.25
77320;PMS7003;66382;52.252;8.780;2024-03-07T06:50:49;50.00;44.25;25.25
77320;PMS7003;66382;52.252;8.780;2024-03-07T06:53:16;45.50;41.75;26.75
77320;PMS7003;66382;52.252;8.780;2024-03-07T06:55:42;47.75;42.75;26.25
77320;PMS7003;66382;52.252;8.780;2024-03-07T06:58:07;40.25;38.50;26.25
77320;PMS7003;66382;52.252;8.780;2024-03-07T07:00:33;49.00;43.50;26.25
77320;PMS7003;66382;52.252;8.780;2024-03-07T07:02:58;38.75;37.25;25.00
77320;PMS7003;66382;52.252;8.780;2024-03-07T07:05:24;45.00;40.00;25.25
77320;PMS7003;66382;52.252;8.780;2024-03-07T07:07:49;46.25;41.75;26.50
77320;PMS7003;66382;52.252;8.780;2024-03-07T07:10:16;46.25;40.75;25.50
77320;PMS7003;66382;52.252;8.780;2024-03-07T07:12:42;41.00;38.25;24.50
77320;PMS7003;66382;52.252;8.780;2024-03-07T07:15:08;43.00;38.50;23.75
77320;PMS7003;66382;52.252;8.780;2024-03-07T07:17:34;38.75;36.25;24.25
77320;PMS7003;66382;52.252;8.780;2024-03-07T07:19:59;44.25;40.50;26.50
77320;PMS7003;66382;52.252;8.780;2024-03-07T07:22:25;47.50;42.25;26.50
77320;PMS7003;66382;52.252;8.780;2024-03-07T07:24:50;47.50;42.00;27.00
77320;PMS7003;66382;52.252;8.780;2024-03-07T07:27:17;46.00;41.00;25.25
77320;PMS7003;66382;52.252;8.780;2024-03-07T07:29:43;47.00;40.25;25.75
77320;PMS7003;66382;52.252;8.780;2024-03-07T07:32:08;50.75;43.75;27.25
77320;PMS7003;66382;52.252;8.780;2024-03-07T07:34:34;50.00;43.00;26.25
77320;PMS7003;66382;52.252;8.780;2024-03-07T07:36:59;47.75;42.50;27.00
77320;PMS7003;66382;52.252;8.780;2024-03-07T07:39:24;55.00;45.50;26.25
77320;PMS7003;66382;52.252;8.780;2024-03-07T07:41:50;51.75;43.25;28.00
77320;PMS7003;66382;52.252;8.780;2024-03-07T07:44:17;52.75;45.25;26.50
77320;PMS7003;66382;52.252;8.780;2024-03-07T07:46:42;47.25;42.00;26.00
77320;PMS7003;66382;52.252;8.780;2024-03-07T07:49:08;54.00;46.75;27.00
77320;PMS7003;66382;52.252;8.780;2024-03-07T07:51:33;49.00;43.25;26.00
77320;PMS7003;66382;52.252;8.780;2024-03-07T07:53:58;47.00;42.25;26.25
77320;PMS7003;66382;52.252;8.780;2024-03-07T07:56:24;53.00;45.00;29.75
77320;PMS7003;66382;52.252;8.780;2024-03-07T07:58:49;49.00;42.75;27.00
77320;PMS7003;66382;52.252;8.780;2024-03-07T08:01:17;46.75;41.50;25.75
77320;PMS7003;66382;52.252;8.780;2024-03-07T08:03:42;47.00;42.25;27.25
77320;PMS7003;66382;52.252;8.780;2024-03-07T08:06:09;53.75;43.50;26.00
77320;PMS7003;66382;52.252;8.780;2024-03-07T08:08:35;50.25;43.25;27.50
77320;PMS7003;66382;52.252;8.780;2024-03-07T08:11:00;49.50;43.00;27.25
77320;PMS7003;66382;52.252;8.780;2024-03-07T08:13:26;47.75;42.50;26.00
77320;PMS7003;66382;52.252;8.780;2024-03-07T08:15:51;51.25;45.25;28.25
77320;PMS7003;66382;52.252;8.780;2024-03-07T08:18:18;46.75;41.75;26.00
77320;PMS7003;66382;52.252;8.780;2024-03-07T08:20:43;47.00;41.75;26.00
77320;PMS7003;66382;52.252;8.780;2024-03-07T08:23:09;50.25;43.75;25.75
77320;PMS7003;66382;52.252;8.780;2024-03-07T08:25:34;50.00;44.00;26.50
77320;PMS7003;66382;52.252;8.780;2024-03-07T08:28:00;42.25;39.00;25.75
77320;PMS7003;66382;52.252;8.780;2024-03-07T08:30:25;45.50;41.00;26.00
77320;PMS7003;66382;52.252;8.780;2024-03-07T08:32:51;43.00;39.00;26.75
77320;PMS7003;66382;52.252;8.780;2024-03-07T08:35:20;41.75;38.00;25.75
77320;PMS7003;66382;52.252;8.780;2024-03-07T08:37:46;51.75;44.50;27.00
77320;PMS7003;66382;52.252;8.780;2024-03-07T08:40:12;44.75;39.50;23.50
77320;PMS7003;66382;52.252;8.780;2024-03-07T08:42:38;46.00;40.75;26.00
77320;PMS7003;66382;52.252;8.780;2024-03-07T08:45:05;43.50;40.00;26.00
77320;PMS7003;66382;52.252;8.780;2024-03-07T08:47:31;47.00;42.00;25.25
77320;PMS7003;66382;52.252;8.780;2024-03-07T08:49:57;47.75;41.00;24.75
77320;PMS7003;66382;52.252;8.780;2024-03-07T08:52:24;47.00;41.50;26.00
77320;PMS7003;66382;52.252;8.780;2024-03-07T08:54:50;45.75;40.25;25.25
77320;PMS7003;66382;52.252;8.780;2024-03-07T08:57:15;48.00;41.75;26.50
77320;PMS7003;66382;52.252;8.780;2024-03-07T08:59:41;44.25;40.25;26.75
77320;PMS7003;66382;52.252;8.780;2024-03-07T09:02:06;47.25;42.00;26.50
77320;PMS7003;66382;52.252;8.780;2024-03-07T09:04:31;52.50;43.25;28.00
77320;PMS7003;66382;52.252;8.780;2024-03-07T09:06:57;49.75;41.75;26.00
77320;PMS7003;66382;52.252;8.780;2024-03-07T09:09:24;47.75;41.75;26.00
77320;PMS7003;66382;52.252;8.780;2024-03-07T09:11:49;45.50;40.50;25.50
77320;PMS7003;66382;52.252;8.780;2024-03-07T09:14:14;44.75;41.00;26.75
77320;PMS7003;66382;52.252;8.780;2024-03-07T09:16:40;47.00;42.00;25.00
77320;PMS7003;66382;52.252;8.780;2024-03-07T09:19:05;51.75;42.25;25.50
77320;PMS7003;66382;52.252;8.780;2024-03-07T09:21:31;50.25;44.25;28.00
77320;PMS7003;66382;52.252;8.780;2024-03-07T09:23:56;41.50;38.75;24.75
77320;PMS7003;66382;52.252;8.780;2024-03-07T09:26:23;50.50;44.00;26.00
77320;PMS7003;66382;52.252;8.780;2024-03-07T09:28:48;43.00;39.25;25.50
77320;PMS7003;66382;52.252;8.780;2024-03-07T09:31:14;52.75;43.00;26.25
77320;PMS7003;66382;52.252;8.780;2024-03-07T09:33:39;53.75;46.00;28.00
77320;PMS7003;66382;52.252;8.780;2024-03-07T09:36:05;52.25;44.75;27.50
77320;PMS7003;66382;52.252;8.780;2024-03-07T09:38:31;51.25;44.25;26.00
77320;PMS7003;66382;52.252;8.780;2024-03-07T09:40:56;56.75;47.50;27.50
77320;PMS7003;66382;52.252;8.780;2024-03-07T09:43:23;56.75;43.75;26.50
77320;PMS7003;66382;52.252;8.780;2024-03-07T09:45:51;55.25;47.50;28.00
77320;PMS7003;66382;52.252;8.780;2024-03-07T09:48:17;54.50;45.75;28.00
77320;PMS7003;66382;52.252;8.780;2024-03-07T09:50:45;38.00;36.75;25.50
77320;PMS7003;66382;52.252;8.780;2024-03-07T09:53:15;49.50;43.50;27.00
77320;PMS7003;66382;52.252;8.780;2024-03-07T09:55:42;53.50;45.25;26.25
77320;PMS7003;66382;52.252;8.780;2024-03-07T09:58:08;59.00;48.25;27.25
77320;PMS7003;66382;52.252;8.780;2024-03-07T10:00:37;54.75;45.00;27.50
77320;PMS7003;66382;52.252;8.780;2024-03-07T10:03:05;60.50;48.00;28.00
77320;PMS7003;66382;52.252;8.780;2024-03-07T10:05:32;55.25;47.25;29.50
77320;PMS7003;66382;52.252;8.780;2024-03-07T10:07:58;55.25;47.75;28.00
77320;PMS7003;66382;52.252;8.780;2024-03-07T10:10:23;53.50;45.75;28.75
77320;PMS7003;66382;52.252;8.780;2024-03-07T10:12:49;54.25;46.75;28.75
77320;PMS7003;66382;52.252;8.780;2024-03-07T10:15:15;56.75;47.50;28.25
77320;PMS7003;66382;52.252;8.780;2024-03-07T10:17:42;50.75;44.25;27.00
77320;PMS7003;66382;52.252;8.780;2024-03-07T10:20:07;58.25;50.25;28.50
77320;PMS7003;66382;52.252;8.780;2024-03-07T10:22:33;49.50;42.50;27.00
77320;PMS7003;66382;52.252;8.780;2024-03-07T10:24:59;55.75;47.75;30.00
77320;PMS7003;66382;52.252;8.780;2024-03-07T10:27:25;56.25;48.00;28.00
77320;PMS7003;66382;52.252;8.780;2024-03-07T10:29:52;59.50;50.00;29.25
77320;PMS7003;66382;52.252;8.780;2024-03-07T10:32:19;58.00;49.50;28.50
77320;PMS7003;66382;52.252;8.780;2024-03-07T10:34:46;57.25;48.25;28.25
77320;PMS7003;66382;52.252;8.780;2024-03-07T10:37:12;56.50;48.50;30.00
77320;PMS7003;66382;52.252;8.780;2024-03-07T10:39:37;58.00;48.00;29.50
77320;PMS7003;66382;52.252;8.780;2024-03-07T10:42:03;58.25;49.25;28.50
77320;PMS7003;66382;52.252;8.780;2024-03-07T10:44:29;56.75;48.00;30.00
77320;PMS7003;66382;52.252;8.780;2024-03-07T10:46:55;60.25;47.25;27.00
77320;PMS7003;66382;52.252;8.780;2024-03-07T10:49:21;55.50;46.50;28.50
77320;PMS7003;66382;52.252;8.780;2024-03-07T10:51:48;55.50;47.00;29.00
77320;PMS7003;66382;52.252;8.780;2024-03-07T10:54:24;53.75;46.00;27.25
77320;PMS7003;66382;52.252;8.780;2024-03-07T10:57:01;57.75;48.00;29.50
77320;PMS7003;66382;52.252;8.780;2024-03-07T10:59:33;50.00;43.75;30.00
77320;PMS7003;66382;52.252;8.780;2024-03-07T11:02:13;51.50;44.50;27.25
77320;PMS7003;66382;52.252;8.780;2024-03-07T11:04:45;51.50;44.50;30.00
77320;PMS7003;66382;52.252;8.780;2024-03-07T11:07:13;55.00;46.00;28.25
77320;PMS7003;66382;52.252;8.780;2024-03-07T11:09:39;58.75;49.50;30.25
77320;PMS7003;66382;52.252;8.780;2024-03-07T11:12:06;46.25;40.75;24.50
77320;PMS7003;66382;52.252;8.780;2024-03-07T11:14:32;59.25;47.25;29.50
77320;PMS7003;66382;52.252;8.780;2024-03-07T11:17:00;47.25;41.00;25.00
77320;PMS7003;66382;52.252;8.780;2024-03-07T11:19:28;53.50;46.00;26.00
77320;PMS7003;66382;52.252;8.780;2024-03-07T11:21:54;57.50;47.75;28.50
77320;PMS7003;66382;52.252;8.780;2024-03-07T11:24:25;55.25;47.50;28.00
77320;PMS7003;66382;52.252;8.780;2024-03-07T11:26:51;61.75;50.75;30.00
77320;PMS7003;66382;52.252;8.780;2024-03-07T11:32:06;56.25;47.50;29.25
77320;PMS7003;66382;52.252;8.780;2024-03-07T11:34:31;53.75;44.00;28.50
77320;PMS7003;66382;52.252;8.780;2024-03-07T11:36:57;55.75;45.75;27.75
77320;PMS7003;66382;52.252;8.780;2024-03-07T11:39:42;56.75;48.25;29.00
77320;PMS7003;66382;52.252;8.780;2024-03-07T11:42:08;50.75;43.25;27.25
77320;PMS7003;66382;52.252;8.780;2024-03-07T11:44:34;55.50;46.50;30.00
77320;PMS7003;66382;52.252;8.780;2024-03-07T11:47:00;56.50;47.25;28.00
77320;PMS7003;66382;52.252;8.780;2024-03-07T11:49:25;59.25;49.25;30.25
77320;PMS7003;66382;52.252;8.780;2024-03-07T11:51:51;57.75;46.25;29.00
77320;PMS7003;66382;52.252;8.780;2024-03-07T11:54:16;54.00;45.75;30.00
77320;PMS7003;66382;52.252;8.780;2024-03-07T11:56:43;53.75;45.00;29.50
77320;PMS7003;66382;52.252;8.780;2024-03-07T11:59:08;54.25;45.75;26.50
77320;PMS7003;66382;52.252;8.780;2024-03-07T12:01:35;52.25;43.00;29.00
77320;PMS7003;66382;52.252;8.780;2024-03-07T12:04:00;57.75;47.50;29.25
77320;PMS7003;66382;52.252;8.780;2024-03-07T12:06:26;56.00;47.00;29.00
77320;PMS7003;66382;52.252;8.780;2024-03-07T12:08:51;54.25;46.25;28.75
77320;PMS7003;66382;52.252;8.780;2024-03-07T12:11:17;55.00;46.00;28.50
77320;PMS7003;66382;52.252;8.780;2024-03-07T12:13:43;54.25;46.25;28.25
77320;PMS7003;66382;52.252;8.780;2024-03-07T12:16:09;51.75;44.00;25.00
77320;PMS7003;66382;52.252;8.780;2024-03-07T12:18:35;49.00;42.00;25.00
77320;PMS7003;66382;52.252;8.780;2024-03-07T12:21:01;49.75;43.25;25.50
77320;PMS7003;66382;52.252;8.780;2024-03-07T12:23:27;50.25;41.50;27.25
77320;PMS7003;66382;52.252;8.780;2024-03-07T12:25:59;50.75;43.75;26.00
77320;PMS7003;66382;52.252;8.780;2024-03-07T12:28:25;54.00;45.50;26.25
77320;PMS7003;66382;52.252;8.780;2024-03-07T12:30:53;53.25;43.50;28.00
77320;PMS7003;66382;52.252;8.780;2024-03-07T12:33:20;49.00;41.75;26.00
77320;PMS7003;66382;52.252;8.780;2024-03-07T12:35:46;45.75;39.75;24.25
77320;PMS7003;66382;52.252;8.780;2024-03-07T12:38:13;50.00;42.25;26.75
77320;PMS7003;66382;52.252;8.780;2024-03-07T12:40:38;51.50;43.75;26.00
77320;PMS7003;66382;52.252;8.780;2024-03-07T12:43:12;45.25;39.25;25.00
77320;PMS7003;66382;52.252;8.780;2024-03-07T12:45:38;46.75;40.25;25.75
77320;PMS7003;66382;52.252;8.780;2024-03-07T12:48:09;46.50;40.75;25.00
77320;PMS7003;66382;52.252;8.780;2024-03-07T12:50:35;47.00;41.25;25.00
77320;PMS7003;66382;52.252;8.780;2024-03-07T12:53:00;42.25;37.50;25.00
77320;PMS7003;66382;52.252;8.780;2024-03-07T12:55:26;45.00;39.00;24.50
77320;PMS7003;66382;52.252;8.780;2024-03-07T12:57:51;50.00;42.00;25.75
77320;PMS7003;66382;52.252;8.780;2024-03-07T13:00:17;35.25;33.75;20.75
77320;PMS7003;66382;52.252;8.780;2024-03-07T13:02:43;48.00;40.25;23.25
77320;PMS7003;66382;52.252;8.780;2024-03-07T13:05:10;37.25;34.50;22.00
77320;PMS7003;66382;52.252;8.780;2024-03-07T13:07:36;32.50;32.25;21.75
77320;PMS7003;66382;52.252;8.780;2024-03-07T13:10:01;45.00;38.50;23.75
77320;PMS7003;66382;52.252;8.780;2024-03-07T13:12:27;40.25;36.75;23.00
77320;PMS7003;66382;52.252;8.780;2024-03-07T13:14:52;38.75;36.00;23.00
77320;PMS7003;66382;52.252;8.780;2024-03-07T13:17:18;39.00;36.00;22.50
77320;PMS7003;66382;52.252;8.780;2024-03-07T13:19:43;46.00;39.00;25.00
77320;PMS7003;66382;52.252;8.780;2024-03-07T13:22:10;34.00;32.25;22.75
77320;PMS7003;66382;52.252;8.780;2024-03-07T13:24:35;33.75;32.75;21.50
77320;PMS7003;66382;52.252;8.780;2024-03-07T13:27:01;36.50;35.00;23.75
77320;PMS7003;66382;52.252;8.780;2024-03-07T13:29:26;39.25;35.75;19.50
77320;PMS7003;66382;52.252;8.780;2024-03-07T13:31:52;36.00;34.25;21.50
77320;PMS7003;66382;52.252;8.780;2024-03-07T13:34:18;35.00;32.50;19.50
77320;PMS7003;66382;52.252;8.780;2024-03-07T13:36:43;43.25;38.00;24.75
77320;PMS7003;66382;52.252;8.780;2024-03-07T13:39:11;38.25;35.75;24.00
77320;PMS7003;66382;52.252;8.780;2024-03-07T13:41:37;42.25;35.75;24.50